Time;durP1;ratioP1;P1;durP2;ratioP2;P2;SDS_P1;SDS_P2;PMS_P1;PMS_P2;Temp;Humidity;BMP_temperature;BMP_pressure;BME280_temperature;BME280_humidity;BME280_pressure;Samples;Min_cycle;Max_cycle;Signal;HPM_P1;HPM_P2
2021/07/28 00:01:54;;;;;;;;;;;20.90;67.90;;;;;;484770;245;2184;-46
2021/07/28 00:03:55;;;;;;;;;;;20.90;67.80;;;;;;484630;245;1188;-46
2021/07/28 00:05:56;;;;;;;;;;;20.90;67.90;;;;;;485113;245;1266;-46
2021/07/28 00:07:58;;;;;;;;;;;20.90;67.80;;;;;;485145;245;1173;-46
2021/07/28 00:09:59;;;;;;;;;;;20.90;67.90;;;;;;485163;245;1097;-46
2021/07/28 00:12:01;;;;;;;;;;;20.90;67.90;;;;;;484848;245;1197;-46
2021/07/28 00:14:02;;;;;;;;;;;20.80;67.90;;;;;;484600;245;1137;-46
2021/07/28 00:16:08;;;;;;;;;;;20.90;67.90;;;;;;484980;245;1232;-46
2021/07/28 00:18:12;;;;;;;;;;;20.80;67.90;;;;;;484727;246;2083;-46
2021/07/28 00:20:10;;;;;;;;;;;20.80;68.00;;;;;;484445;246;2233;-46
2021/07/28 00:24:40;;;;;;;;;;;20.90;68.00;;;;;;468753;246;1256;-46
2021/07/28 00:26:41;;;;;;;;;;;20.90;68.00;;;;;;484691;245;1269;-46
2021/07/28 00:28:43;;;;;;;;;;;20.90;67.90;;;;;;484665;245;1196;-46
2021/07/28 00:30:44;;;;;;;;;;;20.90;67.90;;;;;;484606;245;1221;-46
2021/07/28 00:32:45;;;;;;;;;;;20.80;67.90;;;;;;484608;245;1366;-46
2021/07/28 00:34:47;;;;;;;;;;;20.90;68.00;;;;;;484985;245;981;-46
2021/07/28 00:36:48;;;;;;;;;;;20.90;68.00;;;;;;484694;245;1295;-46
2021/07/28 00:38:49;;;;;;;;;;;20.90;68.00;;;;;;484708;245;1058;-45
2021/07/28 00:40:51;;;;;;;;;;;20.90;68.00;;;;;;484689;245;1069;-46
2021/07/28 00:42:52;;;;;;;;;;;20.90;68.00;;;;;;484675;245;2183;-46
2021/07/28 00:44:53;;;;;;;;;;;20.80;67.90;;;;;;484661;245;1198;-46
2021/07/28 00:46:54;;;;;;;;;;;20.80;67.90;;;;;;484622;245;1187;-46
2021/07/28 00:48:56;;;;;;;;;;;20.90;68.00;;;;;;485022;245;1070;-46
2021/07/28 00:50:57;;;;;;;;;;;20.90;68.00;;;;;;485017;245;1195;-46
2021/07/28 00:53:01;;;;;;;;;;;20.80;68.00;;;;;;484983;245;1231;-46
2021/07/28 00:55:00;;;;;;;;;;;20.80;68.00;;;;;;484943;246;2212;-46
2021/07/28 00:57:01;;;;;;;;;;;20.90;68.00;;;;;;484670;245;1132;-46
2021/07/28 00:59:02;;;;;;;;;;;20.80;67.90;;;;;;484934;245;1178;-46
2021/07/28 01:01:04;;;;;;;;;;;20.80;67.90;;;;;;485129;245;1227;-46
2021/07/28 01:03:05;;;;;;;;;;;20.90;68.00;;;;;;484630;245;2200;-45
2021/07/28 01:05:06;;;;;;;;;;;20.80;68.00;;;;;;484589;245;1043;-46
2021/07/28 01:07:08;;;;;;;;;;;20.80;68.00;;;;;;484712;245;1086;-46
2021/07/28 01:09:09;;;;;;;;;;;20.80;68.00;;;;;;484712;245;1137;-46
2021/07/28 01:11:10;;;;;;;;;;;20.80;67.90;;;;;;484648;245;1708;-46
2021/07/28 01:13:12;;;;;;;;;;;20.90;67.90;;;;;;484640;245;1225;-46
2021/07/28 01:15:21;;;;;;;;;;;20.80;67.90;;;;;;484656;245;1065;-46
2021/07/28 01:17:15;;;;;;;;;;;20.80;67.90;;;;;;484037;246;2513;-46
2021/07/28 01:19:16;;;;;;;;;;;20.80;68.00;;;;;;484664;245;1057;-46
2021/07/28 01:21:17;;;;;;;;;;;20.80;68.00;;;;;;484986;245;1145;-46
2021/07/28 01:23:19;;;;;;;;;;;20.80;68.10;;;;;;484844;245;2192;-46
2021/07/28 01:25:20;;;;;;;;;;;20.80;68.00;;;;;;484778;245;1178;-46
2021/07/28 01:27:21;;;;;;;;;;;20.90;68.10;;;;;;484630;245;1181;-46
2021/07/28 01:29:23;;;;;;;;;;;20.80;68.00;;;;;;484868;245;1132;-46
2021/07/28 01:31:24;;;;;;;;;;;20.80;68.00;;;;;;484985;245;1359;-46
2021/07/28 01:33:25;;;;;;;;;;;20.90;68.00;;;;;;484956;245;1098;-45
2021/07/28 01:35:27;;;;;;;;;;;20.80;67.90;;;;;;485108;245;1110;-46
2021/07/28 01:37:28;;;;;;;;;;;20.80;67.90;;;;;;484623;245;1225;-46
2021/07/28 01:39:29;;;;;;;;;;;20.80;68.10;;;;;;484824;245;1118;-46
2021/07/28 01:41:30;;;;;;;;;;;20.80;68.10;;;;;;484754;245;1225;-46
2021/07/28 01:43:32;;;;;;;;;;;20.80;68.00;;;;;;484658;245;2191;-46
2021/07/28 01:45:33;;;;;;;;;;;20.80;68.00;;;;;;484689;245;1176;-46
2021/07/28 01:47:35;;;;;;;;;;;20.80;67.90;;;;;;484946;245;1163;-46
2021/07/28 01:49:36;;;;;;;;;;;20.80;68.00;;;;;;484917;245;1086;-45
2021/07/28 01:51:42;;;;;;;;;;;20.80;68.10;;;;;;484869;245;1332;-46
2021/07/28 01:53:38;;;;;;;;;;;20.80;68.00;;;;;;484265;246;1273;-46
2021/07/28 01:55:40;;;;;;;;;;;20.90;68.00;;;;;;484626;245;1723;-46
2021/07/28 01:57:41;;;;;;;;;;;20.80;68.00;;;;;;484675;245;1278;-46
2021/07/28 01:59:42;;;;;;;;;;;20.80;68.10;;;;;;484940;245;1150;-46
2021/07/28 02:01:44;;;;;;;;;;;20.80;68.20;;;;;;484792;245;1301;-46
2021/07/28 02:03:45;;;;;;;;;;;20.80;68.20;;;;;;485069;245;2148;-45
2021/07/28 02:05:46;;;;;;;;;;;20.80;68.10;;;;;;484575;245;1092;-46
2021/07/28 02:07:48;;;;;;;;;;;20.80;68.10;;;;;;484644;245;1171;-46
2021/07/28 02:09:49;;;;;;;;;;;20.80;68.10;;;;;;485113;245;1056;-46
2021/07/28 02:11:50;;;;;;;;;;;20.80;68.10;;;;;;484604;245;1330;-46
2021/07/28 02:13:52;;;;;;;;;;;20.80;68.10;;;;;;484564;245;1160;-46
2021/07/28 02:15:53;;;;;;;;;;;20.80;68.10;;;;;;484679;245;1195;-46
2021/07/28 02:17:54;;;;;;;;;;;20.80;68.10;;;;;;484807;245;1290;-46
2021/07/28 02:19:56;;;;;;;;;;;20.80;68.00;;;;;;484734;245;1176;-45
2021/07/28 02:21:57;;;;;;;;;;;20.80;68.00;;;;;;485143;245;1147;-46
2021/07/28 02:23:58;;;;;;;;;;;20.80;68.00;;;;;;485124;245;2152;-45
2021/07/28 02:25:59;;;;;;;;;;;20.80;68.10;;;;;;484669;245;1308;-46
2021/07/28 02:28:01;;;;;;;;;;;20.80;68.20;;;;;;484708;245;1173;-46
2021/07/28 02:30:02;;;;;;;;;;;20.80;68.10;;;;;;484926;245;1135;-46
2021/07/28 02:32:03;;;;;;;;;;;20.80;68.10;;;;;;484548;245;1260;-46
2021/07/28 02:34:05;;;;;;;;;;;20.80;68.00;;;;;;485035;245;1050;-46
2021/07/28 02:36:06;;;;;;;;;;;20.80;68.10;;;;;;484948;245;1402;-46
2021/07/28 02:38:08;;;;;;;;;;;20.80;68.10;;;;;;484569;245;1442;-46
2021/07/28 02:40:09;;;;;;;;;;;20.80;68.10;;;;;;485047;245;1183;-46
2021/07/28 02:42:10;;;;;;;;;;;20.80;68.10;;;;;;484689;245;1623;-46
2021/07/28 02:44:12;;;;;;;;;;;20.80;68.10;;;;;;485074;245;2132;-46
2021/07/28 02:46:13;;;;;;;;;;;20.80;68.00;;;;;;484654;245;1149;-46
2021/07/28 02:48:14;;;;;;;;;;;20.80;68.00;;;;;;484712;245;1195;-46
2021/07/28 02:50:16;;;;;;;;;;;20.80;68.10;;;;;;484661;245;1078;-46
2021/07/28 02:52:17;;;;;;;;;;;20.80;68.10;;;;;;485008;245;1299;-46
2021/07/28 02:54:21;;;;;;;;;;;20.80;68.10;;;;;;484621;245;1187;-46
2021/07/28 02:56:20;;;;;;;;;;;20.80;68.10;;;;;;484719;246;2350;-46
2021/07/28 02:58:21;;;;;;;;;;;20.80;68.00;;;;;;484562;245;1204;-46
2021/07/28 03:00:22;;;;;;;;;;;20.80;68.10;;;;;;484980;245;1170;-46
2021/07/28 03:02:24;;;;;;;;;;;20.80;68.10;;;;;;484648;245;1327;-46
2021/07/28 03:04:25;;;;;;;;;;;20.80;68.20;;;;;;485107;245;2203;-46
2021/07/28 03:06:26;;;;;;;;;;;20.80;68.20;;;;;;484497;245;1352;-46
2021/07/28 03:08:27;;;;;;;;;;;20.80;68.10;;;;;;484656;245;1163;-46
2021/07/28 03:10:29;;;;;;;;;;;20.80;68.20;;;;;;485128;245;1086;-46
2021/07/28 03:12:30;;;;;;;;;;;20.80;68.10;;;;;;484612;245;1368;-46
2021/07/28 03:14:32;;;;;;;;;;;20.80;68.10;;;;;;484792;245;1046;-45
2021/07/28 03:16:33;;;;;;;;;;;20.80;68.10;;;;;;484642;245;1534;-46
2021/07/28 03:18:34;;;;;;;;;;;20.80;68.00;;;;;;485106;245;1095;-46
2021/07/28 03:20:35;;;;;;;;;;;20.80;68.10;;;;;;485099;245;1044;-45
2021/07/28 03:22:37;;;;;;;;;;;20.80;68.10;;;;;;484970;245;1220;-46
2021/07/28 03:24:38;;;;;;;;;;;20.80;68.20;;;;;;484818;245;2101;-46
2021/07/28 03:26:39;;;;;;;;;;;20.80;68.20;;;;;;485040;245;1236;-46
2021/07/28 03:28:41;;;;;;;;;;;20.80;68.10;;;;;;484957;245;1188;-46
2021/07/28 03:30:42;;;;;;;;;;;20.80;68.20;;;;;;484942;245;1137;-45
2021/07/28 03:32:43;;;;;;;;;;;20.80;68.20;;;;;;485045;245;1296;-46
2021/07/28 03:34:45;;;;;;;;;;;20.80;68.20;;;;;;484793;245;1073;-46
2021/07/28 03:36:46;;;;;;;;;;;20.80;68.10;;;;;;484935;245;1180;-46
2021/07/28 03:38:47;;;;;;;;;;;20.80;68.20;;;;;;484738;245;1207;-46
2021/07/28 03:40:49;;;;;;;;;;;20.80;68.10;;;;;;485089;245;1125;-46
2021/07/28 03:42:50;;;;;;;;;;;20.80;68.00;;;;;;484583;245;2190;-46
2021/07/28 03:44:51;;;;;;;;;;;20.80;68.00;;;;;;484910;245;1097;-45
2021/07/28 03:46:52;;;;;;;;;;;20.80;68.00;;;;;;484594;245;1368;-46
2021/07/28 03:48:54;;;;;;;;;;;20.80;68.00;;;;;;484916;245;1139;-46
2021/07/28 03:50:55;;;;;;;;;;;20.80;68.10;;;;;;484819;245;1237;-46
2021/07/28 03:52:57;;;;;;;;;;;20.90;68.00;;;;;;484657;245;1221;-46
2021/07/28 03:54:58;;;;;;;;;;;20.80;68.00;;;;;;484614;245;1123;-46
2021/07/28 03:57:00;;;;;;;;;;;20.80;68.10;;;;;;485037;245;1121;-46
2021/07/28 03:59:01;;;;;;;;;;;20.80;68.10;;;;;;484629;245;1065;-46
2021/07/28 04:01:02;;;;;;;;;;;20.80;68.10;;;;;;484956;245;1236;-46
2021/07/28 04:03:04;;;;;;;;;;;20.80;68.20;;;;;;485066;245;2136;-46
2021/07/28 04:05:05;;;;;;;;;;;20.80;68.10;;;;;;485114;245;1095;-46
2021/07/28 04:07:06;;;;;;;;;;;20.80;68.10;;;;;;484752;245;1253;-46
2021/07/28 04:09:08;;;;;;;;;;;20.80;68.00;;;;;;484672;245;1142;-46
2021/07/28 04:11:09;;;;;;;;;;;20.80;68.10;;;;;;484619;245;1201;-46
2021/07/28 04:13:11;;;;;;;;;;;20.80;68.10;;;;;;484868;245;1252;-46
2021/07/28 04:15:12;;;;;;;;;;;20.80;68.10;;;;;;484568;245;1995;-46
2021/07/28 04:17:13;;;;;;;;;;;20.80;68.00;;;;;;484616;245;1161;-46
2021/07/28 04:19:14;;;;;;;;;;;20.80;68.00;;;;;;485073;245;1081;-46
2021/07/28 04:21:16;;;;;;;;;;;20.80;68.00;;;;;;484587;245;1253;-46
2021/07/28 04:23:17;;;;;;;;;;;20.80;68.10;;;;;;484539;245;2139;-46
2021/07/28 04:25:18;;;;;;;;;;;20.80;68.20;;;;;;484572;245;1077;-46
2021/07/28 04:27:20;;;;;;;;;;;20.80;68.20;;;;;;484572;245;1185;-46
2021/07/28 04:29:21;;;;;;;;;;;20.80;68.20;;;;;;485072;245;1080;-46
2021/07/28 04:31:22;;;;;;;;;;;20.80;68.20;;;;;;484408;245;1132;-46
2021/07/28 04:33:23;;;;;;;;;;;20.80;68.20;;;;;;484478;245;1160;-46
2021/07/28 04:35:25;;;;;;;;;;;20.80;68.20;;;;;;484527;245;1149;-46
2021/07/28 04:37:26;;;;;;;;;;;20.80;68.10;;;;;;484499;245;1231;-46
2021/07/28 04:39:27;;;;;;;;;;;20.80;68.10;;;;;;485011;245;1084;-46
2021/07/28 04:41:29;;;;;;;;;;;20.80;68.20;;;;;;484890;245;1603;-46
2021/07/28 04:43:30;;;;;;;;;;;20.80;68.20;;;;;;485019;245;2144;-46
2021/07/28 04:45:31;;;;;;;;;;;20.80;68.10;;;;;;484742;245;1094;-46
2021/07/28 04:47:33;;;;;;;;;;;20.80;68.10;;;;;;484448;245;1176;-46
2021/07/28 04:49:34;;;;;;;;;;;20.80;68.20;;;;;;484563;245;1125;-46
2021/07/28 04:51:35;;;;;;;;;;;20.80;68.10;;;;;;484995;245;1197;-46
2021/07/28 04:53:37;;;;;;;;;;;20.80;68.10;;;;;;484886;245;1108;-46
2021/07/28 04:55:38;;;;;;;;;;;20.80;68.10;;;;;;484479;245;1115;-46
2021/07/28 04:57:39;;;;;;;;;;;20.80;68.10;;;;;;484336;245;1145;-46
2021/07/28 04:59:41;;;;;;;;;;;20.80;68.00;;;;;;484638;245;1276;-46
2021/07/28 05:01:43;;;;;;;;;;;20.80;68.10;;;;;;484634;245;1236;-46
2021/07/28 05:03:43;;;;;;;;;;;20.80;68.10;;;;;;484507;245;2192;-46
2021/07/28 05:05:45;;;;;;;;;;;20.80;68.20;;;;;;484457;245;1160;-46
2021/07/28 05:07:46;;;;;;;;;;;20.80;68.20;;;;;;484595;245;1214;-45
2021/07/28 05:09:48;;;;;;;;;;;20.80;68.20;;;;;;484410;245;1088;-46
2021/07/28 05:11:49;;;;;;;;;;;20.80;68.20;;;;;;484433;245;1201;-46
2021/07/28 05:13:50;;;;;;;;;;;20.80;68.10;;;;;;484578;245;1244;-46
2021/07/28 05:15:52;;;;;;;;;;;20.80;68.10;;;;;;484336;245;1206;-46
2021/07/28 05:17:53;;;;;;;;;;;20.80;68.20;;;;;;484440;245;1182;-46
2021/07/28 05:19:54;;;;;;;;;;;20.80;68.10;;;;;;484467;245;1085;-46
2021/07/28 05:21:56;;;;;;;;;;;20.80;68.20;;;;;;479235;248;1350;-46
2021/07/28 05:23:57;;;;;;;;;;;20.80;68.20;;;;;;477898;248;2160;-46
2021/07/28 05:25:59;;;;;;;;;;;20.80;68.20;;;;;;482133;247;1200;-46
2021/07/28 05:27:59;;;;;;;;;;;20.80;68.20;;;;;;482244;246;1995;-46
2021/07/28 05:30:01;;;;;;;;;;;20.80;68.20;;;;;;482254;246;1099;-46
2021/07/28 05:32:02;;;;;;;;;;;20.80;68.20;;;;;;482078;246;1279;-46
2021/07/28 05:34:04;;;;;;;;;;;20.80;68.20;;;;;;482109;246;1165;-46
2021/07/28 05:36:05;;;;;;;;;;;20.80;68.20;;;;;;482094;246;1324;-46
2021/07/28 05:38:06;;;;;;;;;;;20.80;68.20;;;;;;482379;246;1217;-46
2021/07/28 05:40:08;;;;;;;;;;;20.80;68.10;;;;;;482259;246;1091;-46
2021/07/28 05:42:10;;;;;;;;;;;20.80;68.10;;;;;;482062;246;1242;-46
2021/07/28 05:44:10;;;;;;;;;;;20.80;68.20;;;;;;482129;246;2412;-46
2021/07/28 05:46:12;;;;;;;;;;;20.80;68.20;;;;;;481995;246;1303;-45
2021/07/28 05:48:13;;;;;;;;;;;20.80;68.20;;;;;;482016;246;1212;-46
2021/07/28 05:50:14;;;;;;;;;;;20.80;68.20;;;;;;482028;246;1149;-46
2021/07/28 05:52:16;;;;;;;;;;;20.80;68.20;;;;;;482001;246;1304;-46
2021/07/28 05:54:17;;;;;;;;;;;20.80;68.20;;;;;;482169;246;1179;-45
2021/07/28 05:56:18;;;;;;;;;;;20.80;68.20;;;;;;482008;246;1196;-46
2021/07/28 05:58:20;;;;;;;;;;;20.80;68.20;;;;;;482163;246;1069;-46
2021/07/28 06:00:21;;;;;;;;;;;20.80;68.20;;;;;;482048;246;1152;-46
2021/07/28 06:02:23;;;;;;;;;;;20.80;68.20;;;;;;482006;246;1359;-45
2021/07/28 06:04:24;;;;;;;;;;;20.80;68.20;;;;;;481875;246;2149;-46
2021/07/28 06:06:26;;;;;;;;;;;20.80;68.20;;;;;;482006;246;1347;-46
2021/07/28 06:08:27;;;;;;;;;;;20.80;68.20;;;;;;481973;246;1178;-46
2021/07/28 06:10:29;;;;;;;;;;;20.80;68.10;;;;;;482037;246;1137;-46
2021/07/28 06:12:30;;;;;;;;;;;20.80;68.20;;;;;;481745;246;2348;-46
2021/07/28 06:14:31;;;;;;;;;;;20.80;68.20;;;;;;481815;246;1297;-46
2021/07/28 06:16:33;;;;;;;;;;;20.80;68.20;;;;;;481920;243;1191;-46
2021/07/28 06:18:34;;;;;;;;;;;20.80;68.20;;;;;;481802;246;1333;-46
2021/07/28 06:20:35;;;;;;;;;;;20.80;68.20;;;;;;481961;246;1181;-46
2021/07/28 06:22:37;;;;;;;;;;;20.80;68.20;;;;;;481763;246;1144;-46
2021/07/28 06:24:38;;;;;;;;;;;20.70;68.20;;;;;;481872;246;2197;-46
2021/07/28 06:26:40;;;;;;;;;;;20.80;68.20;;;;;;481869;246;1856;-46
2021/07/28 06:28:41;;;;;;;;;;;20.80;68.20;;;;;;481680;246;1229;-46
2021/07/28 06:30:42;;;;;;;;;;;20.80;68.20;;;;;;481855;246;1367;-46
2021/07/28 06:32:44;;;;;;;;;;;20.80;68.20;;;;;;481822;246;1173;-45
2021/07/28 06:34:45;;;;;;;;;;;20.80;68.10;;;;;;481697;246;1178;-46
2021/07/28 06:36:46;;;;;;;;;;;20.80;68.20;;;;;;481793;246;1355;-46
2021/07/28 06:38:48;;;;;;;;;;;20.80;68.20;;;;;;481922;246;1234;-46
2021/07/28 06:40:49;;;;;;;;;;;20.80;68.10;;;;;;481883;246;1296;-46
2021/07/28 06:42:50;;;;;;;;;;;20.80;68.20;;;;;;482139;246;1235;-46
2021/07/28 06:44:52;;;;;;;;;;;20.80;68.20;;;;;;481771;246;2200;-45
2021/07/28 06:46:53;;;;;;;;;;;20.80;68.20;;;;;;481694;246;2171;-46
2021/07/28 06:48:54;;;;;;;;;;;20.80;68.20;;;;;;481867;246;1154;-46
2021/07/28 06:50:55;;;;;;;;;;;20.80;68.20;;;;;;481853;246;1189;-46
2021/07/28 06:52:57;;;;;;;;;;;20.80;68.20;;;;;;481848;246;1217;-46
2021/07/28 06:54:58;;;;;;;;;;;20.80;68.20;;;;;;481761;246;1189;-45
2021/07/28 06:56:59;;;;;;;;;;;20.80;68.20;;;;;;481583;246;1185;-46
2021/07/28 06:59:01;;;;;;;;;;;20.80;68.20;;;;;;481643;246;1160;-46
2021/07/28 07:01:05;;;;;;;;;;;20.80;68.20;;;;;;481585;246;1353;-46
2021/07/28 07:03:03;;;;;;;;;;;20.80;68.20;;;;;;481491;246;2406;-46
2021/07/28 07:05:05;;;;;;;;;;;20.80;68.20;;;;;;481572;246;2189;-46
2021/07/28 07:07:06;;;;;;;;;;;20.70;68.20;;;;;;481561;246;1457;-46
2021/07/28 07:09:07;;;;;;;;;;;20.80;68.20;;;;;;481553;246;1062;-46
2021/07/28 07:11:09;;;;;;;;;;;20.80;68.20;;;;;;481431;246;1216;-46
2021/07/28 07:13:10;;;;;;;;;;;20.80;68.20;;;;;;481931;246;1106;-46
2021/07/28 07:15:11;;;;;;;;;;;20.80;68.20;;;;;;481600;246;1090;-46
2021/07/28 07:17:13;;;;;;;;;;;20.80;68.20;;;;;;481606;246;1230;-46
2021/07/28 07:19:14;;;;;;;;;;;20.80;68.20;;;;;;481555;246;1224;-46
2021/07/28 07:21:15;;;;;;;;;;;20.80;68.20;;;;;;481676;246;1267;-46
2021/07/28 07:23:17;;;;;;;;;;;20.80;68.30;;;;;;481806;246;1089;-46
2021/07/28 07:25:20;;;;;;;;;;;20.80;68.20;;;;;;481537;246;2144;-46
2021/07/28 07:27:19;;;;;;;;;;;20.80;68.20;;;;;;481878;246;2062;-46
2021/07/28 07:29:21;;;;;;;;;;;20.80;68.20;;;;;;481748;246;1097;-46
2021/07/28 07:31:22;;;;;;;;;;;20.80;68.20;;;;;;481654;246;1319;-46
2021/07/28 07:33:40;;;;;;;;;;;20.80;68.20;;;;;;481764;246;1265;-46
2021/07/28 07:35:41;;;;;;;;;;;20.80;68.20;;;;;;482188;246;1288;-46
2021/07/28 07:37:42;;;;;;;;;;;20.80;68.20;;;;;;481913;246;1079;-46
2021/07/28 07:39:43;;;;;;;;;;;20.80;68.20;;;;;;482392;246;1259;-46
2021/07/28 07:41:45;;;;;;;;;;;20.80;68.20;;;;;;481807;246;1282;-46
2021/07/28 07:43:46;;;;;;;;;;;20.80;68.20;;;;;;482266;246;1112;-46
2021/07/28 07:45:47;;;;;;;;;;;20.80;68.20;;;;;;481745;246;2192;-46
2021/07/28 07:47:48;;;;;;;;;;;20.80;68.20;;;;;;482336;246;882;-45
2021/07/28 07:49:50;;;;;;;;;;;20.80;68.20;;;;;;481661;246;1162;-46
2021/07/28 07:51:51;;;;;;;;;;;20.80;68.20;;;;;;481605;246;1404;-46
2021/07/28 07:53:52;;;;;;;;;;;20.80;68.20;;;;;;481713;246;1198;-46
2021/07/28 07:55:54;;;;;;;;;;;20.80;68.20;;;;;;481938;246;1212;-45
2021/07/28 07:57:55;;;;;;;;;;;20.70;68.30;;;;;;481590;246;1066;-46
2021/07/28 07:59:56;;;;;;;;;;;20.70;68.20;;;;;;481517;246;1104;-46
2021/07/28 08:01:58;;;;;;;;;;;20.80;68.20;;;;;;481266;246;1122;-46
2021/07/28 08:03:59;;;;;;;;;;;20.80;68.20;;;;;;481367;246;1211;-46
2021/07/28 08:06:00;;;;;;;;;;;20.80;68.20;;;;;;481633;246;2137;-46
2021/07/28 08:08:02;;;;;;;;;;;20.80;68.20;;;;;;481680;246;1506;-46
2021/07/28 08:10:03;;;;;;;;;;;20.80;68.20;;;;;;481814;246;1069;-46
2021/07/28 08:12:04;;;;;;;;;;;20.80;68.20;;;;;;481415;246;1382;-46
2021/07/28 08:14:06;;;;;;;;;;;20.80;68.20;;;;;;481513;246;1347;-46
2021/07/28 08:16:07;;;;;;;;;;;20.80;68.20;;;;;;481532;246;1338;-46
2021/07/28 08:18:09;;;;;;;;;;;20.80;68.30;;;;;;482460;246;1069;-45
2021/07/28 08:20:10;;;;;;;;;;;20.80;68.20;;;;;;481936;246;2234;-46
2021/07/28 08:22:11;;;;;;;;;;;20.80;68.20;;;;;;482012;246;1091;-46
2021/07/28 08:24:12;;;;;;;;;;;20.80;68.20;;;;;;481897;246;891;-46
2021/07/28 08:26:13;;;;;;;;;;;20.80;68.20;;;;;;482318;246;2197;-46
2021/07/28 08:28:15;;;;;;;;;;;20.80;68.20;;;;;;482349;246;1130;-46
2021/07/28 08:30:16;;;;;;;;;;;20.80;68.20;;;;;;482358;246;912;-46
2021/07/28 08:32:17;;;;;;;;;;;20.80;68.20;;;;;;482287;246;1222;-46
2021/07/28 08:34:19;;;;;;;;;;;20.80;68.20;;;;;;481874;246;1182;-46
2021/07/28 08:36:20;;;;;;;;;;;20.70;68.20;;;;;;481930;246;952;-46
2021/07/28 08:38:21;;;;;;;;;;;20.80;68.20;;;;;;482401;246;842;-46
2021/07/28 08:40:23;;;;;;;;;;;20.80;68.40;;;;;;482353;246;1093;-46
2021/07/28 08:42:27;;;;;;;;;;;20.70;68.20;;;;;;482359;246;876;-46
2021/07/28 08:44:25;;;;;;;;;;;20.80;68.20;;;;;;482214;246;2318;-46
2021/07/28 08:46:27;;;;;;;;;;;20.70;68.20;;;;;;481888;246;2203;-46
2021/07/28 08:48:29;;;;;;;;;;;20.80;68.20;;;;;;482048;246;1327;-46
2021/07/28 08:50:30;;;;;;;;;;;20.80;68.20;;;;;;481825;246;1162;-46
2021/07/28 08:52:32;;;;;;;;;;;20.80;68.20;;;;;;482140;246;1184;-46
2021/07/28 08:54:33;;;;;;;;;;;20.80;68.20;;;;;;481801;246;1292;-45
2021/07/28 08:56:35;;;;;;;;;;;20.80;68.20;;;;;;482145;246;1181;-46
2021/07/28 08:58:36;;;;;;;;;;;20.70;68.30;;;;;;481875;246;886;-46
2021/07/28 09:00:37;;;;;;;;;;;20.80;68.40;;;;;;482239;246;1179;-46
2021/07/28 09:02:38;;;;;;;;;;;20.70;68.30;;;;;;481794;246;1226;-46
2021/07/28 09:04:41;;;;;;;;;;;20.70;68.20;;;;;;481628;246;2189;-46
2021/07/28 09:06:42;;;;;;;;;;;20.80;68.20;;;;;;481963;246;1332;-46
2021/07/28 09:08:44;;;;;;;;;;;20.80;68.20;;;;;;481991;246;862;-46
2021/07/28 09:10:45;;;;;;;;;;;20.80;68.20;;;;;;481708;246;1216;-46
2021/07/28 09:12:47;;;;;;;;;;;20.80;68.20;;;;;;481705;246;1085;-46
2021/07/28 09:14:48;;;;;;;;;;;20.80;68.20;;;;;;482153;246;1126;-46
2021/07/28 09:16:49;;;;;;;;;;;20.80;68.20;;;;;;482116;246;1126;-46
2021/07/28 09:18:50;;;;;;;;;;;20.80;68.20;;;;;;482169;246;884;-46
2021/07/28 09:20:52;;;;;;;;;;;20.80;68.20;;;;;;481571;246;1297;-46
2021/07/28 09:22:53;;;;;;;;;;;20.80;68.30;;;;;;481358;246;1364;-46
2021/07/28 09:24:54;;;;;;;;;;;20.70;68.30;;;;;;481415;246;2146;-45
2021/07/28 09:26:56;;;;;;;;;;;20.80;68.30;;;;;;481229;246;1287;-46
2021/07/28 09:28:57;;;;;;;;;;;20.80;68.20;;;;;;481304;246;1180;-46
2021/07/28 09:30:58;;;;;;;;;;;20.70;68.20;;;;;;481221;246;1355;-46
2021/07/28 09:33:00;;;;;;;;;;;20.70;68.20;;;;;;481034;246;1240;-46
2021/07/28 09:35:01;;;;;;;;;;;20.70;68.20;;;;;;480282;246;1245;-46
2021/07/28 09:37:04;;;;;;;;;;;20.80;68.20;;;;;;481784;246;1634;-45
2021/07/28 09:39:04;;;;;;;;;;;20.70;68.20;;;;;;481507;246;1949;-46
2021/07/28 09:41:05;;;;;;;;;;;20.80;68.20;;;;;;481448;246;1151;-46
2021/07/28 09:43:07;;;;;;;;;;;20.70;68.30;;;;;;481604;246;1190;-46
2021/07/28 09:45:08;;;;;;;;;;;20.80;68.30;;;;;;481780;246;2201;-46
2021/07/28 09:47:09;;;;;;;;;;;20.80;68.20;;;;;;482330;246;1079;-45
2021/07/28 09:49:11;;;;;;;;;;;20.80;68.30;;;;;;482139;246;1106;-46
2021/07/28 09:51:12;;;;;;;;;;;20.80;68.20;;;;;;481446;246;1294;-46
2021/07/28 09:53:13;;;;;;;;;;;20.80;68.20;;;;;;482208;246;1106;-46
2021/07/28 09:55:15;;;;;;;;;;;20.70;68.30;;;;;;481373;246;1184;-46
2021/07/28 09:57:20;;;;;;;;;;;20.80;68.40;;;;;;481627;246;1185;-46
2021/07/28 09:59:17;;;;;;;;;;;20.70;68.30;;;;;;481282;247;2030;-46
2021/07/28 10:01:19;;;;;;;;;;;20.70;68.30;;;;;;481579;246;1308;-46
2021/07/28 10:03:20;;;;;;;;;;;20.80;68.30;;;;;;481524;246;1172;-46
2021/07/28 10:05:21;;;;;;;;;;;20.80;68.20;;;;;;481487;246;2189;-45
2021/07/28 10:07:22;;;;;;;;;;;20.80;68.20;;;;;;481154;246;1155;-46
2021/07/28 10:09:24;;;;;;;;;;;20.70;68.20;;;;;;481315;246;1115;-46
2021/07/28 10:11:25;;;;;;;;;;;20.80;68.40;;;;;;481239;246;1261;-46
2021/07/28 10:13:26;;;;;;;;;;;20.80;68.30;;;;;;481220;246;1250;-46
2021/07/28 10:15:28;;;;;;;;;;;20.70;68.30;;;;;;481336;246;1130;-46
2021/07/28 10:17:29;;;;;;;;;;;20.80;68.30;;;;;;481334;246;1652;-46
2021/07/28 10:19:32;;;;;;;;;;;20.70;68.30;;;;;;481228;246;1131;-45
2021/07/28 10:21:32;;;;;;;;;;;20.70;68.70;;;;;;481134;246;2083;-46
2021/07/28 10:23:34;;;;;;;;;;;20.60;68.80;;;;;;482145;246;1133;-46
2021/07/28 10:25:35;;;;;;;;;;;20.60;68.90;;;;;;482143;246;2207;-46
2021/07/28 10:27:36;;;;;;;;;;;20.50;69.00;;;;;;481765;246;1369;-46
2021/07/28 10:29:38;;;;;;;;;;;20.50;69.10;;;;;;482172;246;1338;-46
2021/07/28 10:31:39;;;;;;;;;;;20.50;69.20;;;;;;482120;246;1169;-46
2021/07/28 10:33:40;;;;;;;;;;;20.50;69.20;;;;;;481945;246;869;-46
2021/07/28 10:35:42;;;;;;;;;;;20.60;69.10;;;;;;482000;246;1375;-45
2021/07/28 10:37:43;;;;;;;;;;;20.60;68.90;;;;;;481656;246;1080;-46
2021/07/28 10:39:46;;;;;;;;;;;20.60;68.70;;;;;;482239;246;854;-46
2021/07/28 10:41:46;;;;;;;;;;;20.60;68.70;;;;;;482225;246;1431;-46
2021/07/28 10:43:47;;;;;;;;;;;20.60;68.70;;;;;;482360;246;858;-46
2021/07/28 10:45:48;;;;;;;;;;;20.60;68.60;;;;;;481549;246;2197;-46
2021/07/28 10:47:50;;;;;;;;;;;20.60;68.60;;;;;;481644;246;1156;-46
2021/07/28 10:49:51;;;;;;;;;;;20.70;68.60;;;;;;481570;246;2070;-46
2021/07/28 10:51:53;;;;;;;;;;;20.70;68.60;;;;;;481421;246;1317;-46
2021/07/28 10:53:54;;;;;;;;;;;20.70;68.50;;;;;;481697;246;2047;-45
2021/07/28 10:55:55;;;;;;;;;;;20.70;68.50;;;;;;482249;246;1155;-45
2021/07/28 10:57:56;;;;;;;;;;;20.70;68.60;;;;;;482121;246;1041;-46
2021/07/28 10:59:58;;;;;;;;;;;20.70;68.60;;;;;;482217;246;884;-46
2021/07/28 11:01:59;;;;;;;;;;;20.60;68.50;;;;;;481871;246;1181;-46
2021/07/28 11:04:00;;;;;;;;;;;20.60;68.60;;;;;;481524;246;1158;-46
2021/07/28 11:06:02;;;;;;;;;;;20.60;68.60;;;;;;481400;246;2185;-46
2021/07/28 11:08:03;;;;;;;;;;;20.70;68.50;;;;;;482398;246;1069;-45
2021/07/28 11:10:04;;;;;;;;;;;20.70;68.50;;;;;;481955;246;904;-46
2021/07/28 11:12:08;;;;;;;;;;;20.70;68.50;;;;;;482184;246;1110;-46
2021/07/28 11:14:07;;;;;;;;;;;20.70;68.50;;;;;;482227;246;2028;-46
2021/07/28 11:16:09;;;;;;;;;;;20.70;68.50;;;;;;481757;246;1228;-46
2021/07/28 11:18:10;;;;;;;;;;;20.70;68.40;;;;;;482302;246;849;-45
2021/07/28 11:20:11;;;;;;;;;;;20.70;68.60;;;;;;481903;246;882;-46
2021/07/28 11:22:12;;;;;;;;;;;20.70;68.50;;;;;;481847;246;1270;-46
2021/07/28 11:24:13;;;;;;;;;;;20.70;68.50;;;;;;482362;246;1257;-46
2021/07/28 11:26:15;;;;;;;;;;;20.70;68.40;;;;;;481846;246;2195;-46
2021/07/28 11:28:17;;;;;;;;;;;20.70;68.40;;;;;;482249;246;1093;-46
2021/07/28 11:30:18;;;;;;;;;;;20.70;68.30;;;;;;481897;246;923;-46
2021/07/28 11:32:19;;;;;;;;;;;20.70;68.40;;;;;;481804;246;1626;-46
2021/07/28 11:34:21;;;;;;;;;;;20.70;68.30;;;;;;481993;246;1012;-46
2021/07/28 11:36:23;;;;;;;;;;;20.70;68.20;;;;;;481729;246;1223;-45
2021/07/28 11:38:23;;;;;;;;;;;20.70;68.40;;;;;;481607;246;1993;-46
2021/07/28 11:40:24;;;;;;;;;;;20.70;68.40;;;;;;481764;246;876;-46
2021/07/28 11:42:26;;;;;;;;;;;20.70;68.30;;;;;;481675;246;1252;-46
2021/07/28 11:44:27;;;;;;;;;;;20.70;68.30;;;;;;481807;246;845;-46
2021/07/28 11:46:28;;;;;;;;;;;20.70;68.40;;;;;;481732;246;2193;-46
2021/07/28 11:48:30;;;;;;;;;;;20.70;68.30;;;;;;481877;246;1166;-46
2021/07/28 11:50:31;;;;;;;;;;;20.80;68.20;;;;;;481829;246;2283;-46
2021/07/28 11:52:32;;;;;;;;;;;20.80;68.20;;;;;;481797;246;1418;-46
2021/07/28 11:54:34;;;;;;;;;;;20.80;68.20;;;;;;482332;246;1168;-46
2021/07/28 11:56:35;;;;;;;;;;;20.80;68.20;;;;;;481728;246;1097;-46
2021/07/28 11:58:36;;;;;;;;;;;20.70;68.20;;;;;;481856;246;852;-46
2021/07/28 12:00:39;;;;;;;;;;;20.70;68.20;;;;;;482149;246;1097;-46